Time;durP1;ratioP1;P1;durP2;ratioP2;P2;SDS_P1;SDS_P2;PMS_P1;PMS_P2;Temp;Humidity;BMP_temperature;BMP_pressure;BME280_temperature;BME280_humidity;BME280_pressure;Samples;Min_cycle;Max_cycle;Signal;HPM_P1;HPM_P2
2022/11/08 00:01:32;;;;;;;;;;;13.00;99.90;;;;;;12576640;28;19931;-83
2022/11/08 00:13:58;;;;;;;;;;;12.70;99.90;;;;;;12580259;28;19933;-83
2022/11/08 00:20:00;;;;;;;;;;;12.50;99.90;;;;;;12585051;28;19999;-83
2022/11/08 00:26:01;;;;;;;;;;;12.40;99.90;;;;;;12583023;28;19983;-84
2022/11/08 00:32:04;;;;;;;;;;;12.40;99.90;;;;;;12576741;28;19928;-83
2022/11/08 00:38:06;;;;;;;;;;;12.30;99.90;;;;;;12584052;28;19925;-83
2022/11/08 00:44:07;;;;;;;;;;;12.30;99.90;;;;;;12580265;28;19933;-82
2022/11/08 00:50:09;;;;;;;;;;;12.20;99.90;;;;;;12585617;28;19924;-83
2022/11/08 00:56:12;;;;;;;;;;;12.10;99.90;;;;;;12581635;28;20376;-83
2022/11/08 01:02:13;;;;;;;;;;;12.10;99.90;;;;;;12574673;28;20292;-83
2022/11/08 01:08:16;;;;;;;;;;;12.10;99.90;;;;;;12574754;28;19932;-83
2022/11/08 01:14:18;;;;;;;;;;;12.00;99.90;;;;;;12566318;28;19959;-83
2022/11/08 01:20:20;;;;;;;;;;;11.90;99.90;;;;;;12564008;28;20479;-83
2022/11/08 01:26:23;;;;;;;;;;;11.90;99.90;;;;;;12571070;28;19933;-83
2022/11/08 01:32:24;;;;;;;;;;;11.80;99.90;;;;;;12582754;28;20003;-83
2022/11/08 01:38:26;;;;;;;;;;;11.80;99.90;;;;;;12577859;28;19943;-83
2022/11/08 01:44:28;;;;;;;;;;;11.90;99.90;;;;;;12578201;28;19928;-83
2022/11/08 01:50:30;;;;;;;;;;;11.80;99.90;;;;;;12572648;28;19928;-83
2022/11/08 01:56:31;;;;;;;;;;;11.80;99.90;;;;;;12575352;28;19929;-84
2022/11/08 02:02:34;;;;;;;;;;;11.80;99.90;;;;;;12579909;28;19939;-83
2022/11/08 02:08:40;;;;;;;;;;;11.70;99.90;;;;;;12583440;28;19924;-83
2022/11/08 02:14:42;;;;;;;;;;;11.60;99.90;;;;;;12568520;28;19939;-83
2022/11/08 02:20:49;;;;;;;;;;;11.60;99.90;;;;;;12575495;28;19948;-83
2022/11/08 02:26:51;;;;;;;;;;;11.50;99.90;;;;;;12582630;28;19931;-84
2022/11/08 02:32:53;;;;;;;;;;;11.60;99.90;;;;;;12590088;28;19939;-83
2022/11/08 02:38:55;;;;;;;;;;;11.50;99.90;;;;;;12582565;28;19936;-83
2022/11/08 02:44:57;;;;;;;;;;;11.50;99.90;;;;;;12584979;28;19939;-83
2022/11/08 02:50:59;;;;;;;;;;;11.50;99.90;;;;;;12577279;28;19925;-83
2022/11/08 02:57:00;;;;;;;;;;;11.50;99.90;;;;;;12578838;28;19977;-82
2022/11/08 03:03:02;;;;;;;;;;;11.40;99.90;;;;;;12578248;28;19935;-83
2022/11/08 03:09:04;;;;;;;;;;;11.40;99.90;;;;;;12582953;28;19928;-83
2022/11/08 03:15:06;;;;;;;;;;;11.40;99.90;;;;;;12585238;28;20071;-83
2022/11/08 03:21:08;;;;;;;;;;;11.40;99.90;;;;;;12575426;28;19924;-83
2022/11/08 03:27:10;;;;;;;;;;;11.50;99.90;;;;;;12583578;28;19933;-83
2022/11/08 03:33:11;;;;;;;;;;;11.60;99.90;;;;;;12579064;28;19928;-84
2022/11/08 03:39:13;;;;;;;;;;;11.60;99.90;;;;;;12568197;28;19931;-83
2022/11/08 03:45:15;;;;;;;;;;;11.80;99.90;;;;;;12574667;28;20384;-83
2022/11/08 03:51:16;;;;;;;;;;;11.80;99.90;;;;;;12574531;28;20293;-83
2022/11/08 03:57:18;;;;;;;;;;;11.80;99.90;;;;;;12577590;28;19924;-83
2022/11/08 04:03:20;;;;;;;;;;;11.70;99.90;;;;;;12576547;28;20372;-83
2022/11/08 04:09:21;;;;;;;;;;;11.50;99.90;;;;;;12573982;28;19931;-83
2022/11/08 04:15:23;;;;;;;;;;;11.70;99.90;;;;;;12574458;28;19935;-83
2022/11/08 04:21:25;;;;;;;;;;;11.80;99.90;;;;;;12571550;28;20288;-84
2022/11/08 04:27:26;;;;;;;;;;;11.80;99.90;;;;;;12574115;28;19924;-83
2022/11/08 04:33:28;;;;;;;;;;;11.90;99.90;;;;;;12568529;28;19924;-83
2022/11/08 04:39:30;;;;;;;;;;;11.80;99.90;;;;;;12559996;28;19928;-83
2022/11/08 04:45:31;;;;;;;;;;;11.90;99.90;;;;;;12575528;28;20288;-83
2022/11/08 04:51:33;;;;;;;;;;;11.90;99.90;;;;;;12568411;28;19924;-83
2022/11/08 04:57:35;;;;;;;;;;;11.70;99.90;;;;;;12573674;28;20384;-83
2022/11/08 05:03:36;;;;;;;;;;;11.80;99.90;;;;;;12584818;28;20585;-83
2022/11/08 05:09:38;;;;;;;;;;;11.60;99.90;;;;;;12580659;28;19928;-83
2022/11/08 05:15:40;;;;;;;;;;;11.60;99.90;;;;;;12573667;28;20386;-83
2022/11/08 05:28:02;;;;;;;;;;;11.40;99.90;;;;;;12571962;28;19932;-84
2022/11/08 05:34:03;;;;;;;;;;;11.40;99.90;;;;;;12567241;28;19967;-83
2022/11/08 05:40:05;;;;;;;;;;;11.40;99.90;;;;;;12575913;28;19924;-83
2022/11/08 05:46:07;;;;;;;;;;;11.40;99.90;;;;;;12574032;28;20501;-83
2022/11/08 05:52:09;;;;;;;;;;;11.40;99.90;;;;;;12581864;28;19928;-84
2022/11/08 05:58:10;;;;;;;;;;;11.40;99.90;;;;;;12576447;28;19934;-83
2022/11/08 06:04:12;;;;;;;;;;;11.20;99.90;;;;;;12570178;28;19950;-84
2022/11/08 06:10:14;;;;;;;;;;;11.20;99.90;;;;;;12575340;28;19924;-84
2022/11/08 06:16:16;;;;;;;;;;;11.30;99.90;;;;;;12570154;28;19928;-84
2022/11/08 06:22:18;;;;;;;;;;;11.20;99.90;;;;;;12577370;28;19991;-84
2022/11/08 06:28:20;;;;;;;;;;;10.90;99.90;;;;;;12572695;28;19924;-85
2022/11/08 06:34:21;;;;;;;;;;;10.70;99.90;;;;;;12576870;28;19932;-85
2022/11/08 06:40:23;;;;;;;;;;;10.60;99.90;;;;;;12581067;28;19963;-85
2022/11/08 06:46:25;;;;;;;;;;;10.50;99.90;;;;;;12583825;28;20288;-85
2022/11/08 06:52:26;;;;;;;;;;;10.60;99.90;;;;;;12583633;28;20353;-85
2022/11/08 06:58:28;;;;;;;;;;;10.50;99.90;;;;;;12583981;28;19924;-85
2022/11/08 07:04:30;;;;;;;;;;;10.60;99.90;;;;;;12584368;28;19951;-85
2022/11/08 07:10:32;;;;;;;;;;;10.70;99.90;;;;;;12584766;28;20292;-85
2022/11/08 07:16:33;;;;;;;;;;;10.80;99.90;;;;;;12581288;28;19931;-85
2022/11/08 07:22:35;;;;;;;;;;;10.90;99.90;;;;;;12578918;28;20023;-86
2022/11/08 07:28:37;;;;;;;;;;;10.90;99.90;;;;;;12587793;28;19925;-87
2022/11/08 07:34:38;;;;;;;;;;;11.00;99.90;;;;;;12572692;28;19929;-85
2022/11/08 07:40:40;;;;;;;;;;;11.10;99.90;;;;;;12571746;28;19951;-86
2022/11/08 07:46:42;;;;;;;;;;;11.10;99.90;;;;;;12582749;28;20256;-85
2022/11/08 07:52:48;;;;;;;;;;;11.30;99.90;;;;;;12580289;28;19934;-85
2022/11/08 07:58:52;;;;;;;;;;;11.70;99.90;;;;;;12586797;28;19936;-85
2022/11/08 08:04:53;;;;;;;;;;;11.90;99.90;;;;;;12582927;28;19924;-86
2022/11/08 08:10:56;;;;;;;;;;;12.10;99.90;;;;;;12576889;28;19936;-85
2022/11/08 08:16:58;;;;;;;;;;;12.20;99.90;;;;;;12579957;28;19929;-85
2022/11/08 08:23:00;;;;;;;;;;;12.10;99.90;;;;;;12584519;28;19928;-86
2022/11/08 08:29:01;;;;;;;;;;;12.30;99.90;;;;;;12580143;28;19932;-86
2022/11/08 08:35:04;;;;;;;;;;;12.40;99.90;;;;;;12574317;28;19929;-85
2022/11/08 08:41:05;;;;;;;;;;;12.60;99.90;;;;;;12570647;28;19924;-85
2022/11/08 08:47:07;;;;;;;;;;;12.80;99.90;;;;;;12581227;28;19924;-86
2022/11/08 08:53:09;;;;;;;;;;;12.90;99.90;;;;;;12582265;28;19929;-85
2022/11/08 08:59:11;;;;;;;;;;;13.00;99.90;;;;;;12567828;28;19928;-86
2022/11/08 09:05:33;;;;;;;;;;;13.00;99.90;;;;;;12567390;28;19940;-86
2022/11/08 09:11:34;;;;;;;;;;;13.30;99.90;;;;;;12580324;28;19932;-85
2022/11/08 09:17:36;;;;;;;;;;;13.30;99.90;;;;;;12580115;28;19929;-85
2022/11/08 09:23:40;;;;;;;;;;;13.40;99.90;;;;;;12571458;28;19928;-85
2022/11/08 09:29:41;;;;;;;;;;;13.50;99.90;;;;;;12576544;28;19944;-85
2022/11/08 09:35:45;;;;;;;;;;;13.80;99.90;;;;;;12572554;28;19928;-85
2022/11/08 09:42:09;;;;;;;;;;;13.90;99.90;;;;;;12572386;28;19924;-86
2022/11/08 09:48:32;;;;;;;;;;;14.00;99.90;;;;;;12569737;28;19931;-86
2022/11/08 09:54:45;;;;;;;;;;;14.30;99.90;;;;;;12577306;28;19974;-84
2022/11/08 10:00:49;;;;;;;;;;;14.50;99.90;;;;;;12566505;28;19932;-85
2022/11/08 10:07:14;;;;;;;;;;;14.60;99.90;;;;;;12589693;28;19928;-85
2022/11/08 10:13:24;;;;;;;;;;;14.70;99.90;;;;;;12564895;28;19925;-85
2022/11/08 10:19:45;;;;;;;;;;;14.70;99.90;;;;;;12572265;28;19948;-85
2022/11/08 10:25:49;;;;;;;;;;;14.70;99.90;;;;;;12584763;28;19932;-85
2022/11/08 10:31:54;;;;;;;;;;;15.00;99.90;;;;;;12591491;28;19924;-86
2022/11/08 10:37:58;;;;;;;;;;;15.00;99.90;;;;;;12577610;28;19951;-85
2022/11/08 10:44:03;;;;;;;;;;;15.20;99.90;;;;;;12567472;28;20376;-85
2022/11/08 10:50:11;;;;;;;;;;;15.20;99.90;;;;;;12573232;28;19932;-85
2022/11/08 10:56:13;;;;;;;;;;;15.30;99.90;;;;;;12576148;28;19944;-84
2022/11/08 11:02:17;;;;;;;;;;;15.30;99.90;;;;;;12595961;28;20307;-84
2022/11/08 11:08:18;;;;;;;;;;;15.40;99.90;;;;;;12584011;28;19924;-85
2022/11/08 11:14:21;;;;;;;;;;;15.50;99.90;;;;;;12585545;28;20058;-85
2022/11/08 11:20:23;;;;;;;;;;;15.50;99.90;;;;;;12584932;28;19929;-86
2022/11/08 11:26:26;;;;;;;;;;;15.70;99.90;;;;;;12581785;28;19925;-86
2022/11/08 11:32:32;;;;;;;;;;;15.60;99.90;;;;;;12577397;28;19928;-85
2022/11/08 11:38:40;;;;;;;;;;;15.60;99.90;;;;;;12584970;28;19928;-84
2022/11/08 11:45:01;;;;;;;;;;;15.70;99.90;;;;;;12580950;28;19935;-85
2022/11/08 11:51:02;;;;;;;;;;;15.90;99.90;;;;;;12586246;28;19925;-86
2022/11/08 11:57:07;;;;;;;;;;;16.10;99.90;;;;;;12584401;28;19932;-85
2022/11/08 12:03:17;;;;;;;;;;;16.20;99.90;;;;;;12578301;28;20411;-85
2022/11/08 12:09:26;;;;;;;;;;;16.20;99.90;;;;;;12582238;28;19928;-85
2022/11/08 12:15:37;;;;;;;;;;;16.20;99.90;;;;;;12583334;28;19958;-85
2022/11/08 12:21:53;;;;;;;;;;;16.20;99.90;;;;;;12583741;28;19931;-85
2022/11/08 12:28:15;;;;;;;;;;;16.10;99.90;;;;;;12589918;28;19924;-85
2022/11/08 12:34:17;;;;;;;;;;;16.00;99.90;;;;;;12592409;28;19925;-85
2022/11/08 12:40:23;;;;;;;;;;;15.90;99.90;;;;;;12644454;28;19975;-85
2022/11/08 12:46:27;;;;;;;;;;;15.90;99.90;;;;;;12625812;28;19952;-85
2022/11/08 12:52:44;;;;;;;;;;;16.00;99.90;;;;;;12631783;28;19928;-85
2022/11/08 12:58:50;;;;;;;;;;;16.00;99.90;;;;;;12617435;28;19932;-85
2022/11/08 13:04:59;;;;;;;;;;;16.10;99.90;;;;;;12607509;28;19924;-85
2022/11/08 13:11:10;;;;;;;;;;;16.30;99.90;;;;;;12608335;28;19928;-85
2022/11/08 13:17:11;;;;;;;;;;;16.50;99.90;;;;;;12578933;28;19925;-85
2022/11/08 13:23:14;;;;;;;;;;;16.50;99.90;;;;;;12580511;28;19936;-85
2022/11/08 13:29:16;;;;;;;;;;;16.30;99.90;;;;;;12579635;28;19950;-85
2022/11/08 13:35:29;;;;;;;;;;;16.10;99.90;;;;;;12572902;28;19925;-85
2022/11/08 13:41:51;;;;;;;;;;;16.10;99.90;;;;;;12579677;28;19925;-85
2022/11/08 13:47:54;;;;;;;;;;;16.00;99.90;;;;;;12564120;28;19936;-85
2022/11/08 13:53:56;;;;;;;;;;;15.90;99.90;;;;;;12582632;28;19925;-85
2022/11/08 13:59:58;;;;;;;;;;;15.70;99.90;;;;;;12580491;28;19932;-85
2022/11/08 14:06:03;;;;;;;;;;;15.70;99.90;;;;;;12577356;28;19928;-85
2022/11/08 14:12:07;;;;;;;;;;;15.70;99.90;;;;;;12589686;28;19974;-85
2022/11/08 14:18:09;;;;;;;;;;;15.70;99.90;;;;;;12584095;28;19990;-84
2022/11/08 14:24:16;;;;;;;;;;;15.60;99.90;;;;;;12593352;28;19924;-85
2022/11/08 14:30:19;;;;;;;;;;;15.50;99.90;;;;;;12583154;28;19932;-84
2022/11/08 14:36:21;;;;;;;;;;;15.40;99.90;;;;;;12583298;28;19932;-85
2022/11/08 14:42:24;;;;;;;;;;;15.40;99.90;;;;;;12581196;28;19933;-85
2022/11/08 14:48:29;;;;;;;;;;;15.20;99.90;;;;;;12592389;28;20399;-84
2022/11/08 14:54:38;;;;;;;;;;;15.20;99.90;;;;;;12593199;28;20266;-85
2022/11/08 15:00:41;;;;;;;;;;;15.20;99.90;;;;;;12573100;28;19939;-84
2022/11/08 15:06:45;;;;;;;;;;;15.10;99.90;;;;;;12581034;28;20395;-85
2022/11/08 15:12:47;;;;;;;;;;;15.00;99.90;;;;;;12580456;28;20007;-85
2022/11/08 15:18:49;;;;;;;;;;;15.10;99.90;;;;;;12576243;28;19935;-84
2022/11/08 15:25:09;;;;;;;;;;;15.10;99.90;;;;;;12577396;28;19978;-85
2022/11/08 15:31:14;;;;;;;;;;;15.00;99.90;;;;;;12579543;28;19924;-85
2022/11/08 15:37:27;;;;;;;;;;;15.00;99.90;;;;;;12575544;28;19925;-84
2022/11/08 15:43:28;;;;;;;;;;;14.90;99.90;;;;;;12580256;28;19936;-84
2022/11/08 15:49:30;;;;;;;;;;;15.00;99.90;;;;;;12572926;28;20531;-84
2022/11/08 15:55:36;;;;;;;;;;;15.00;99.90;;;;;;12574058;28;19929;-84
2022/11/08 16:01:38;;;;;;;;;;;14.90;99.90;;;;;;12582262;28;19963;-85
2022/11/08 16:07:43;;;;;;;;;;;14.90;99.90;;;;;;12573932;28;20455;-84
2022/11/08 16:13:47;;;;;;;;;;;14.90;99.90;;;;;;12577186;28;19928;-84
2022/11/08 16:19:49;;;;;;;;;;;14.80;99.90;;;;;;12575435;28;19993;-84
2022/11/08 16:25:53;;;;;;;;;;;14.80;99.90;;;;;;12576775;28;19924;-83
2022/11/08 16:31:55;;;;;;;;;;;14.60;99.90;;;;;;12575092;28;19932;-84
2022/11/08 16:38:04;;;;;;;;;;;14.70;99.90;;;;;;12595487;27;20296;-38
2022/11/08 16:44:07;;;;;;;;;;;14.60;99.90;;;;;;12564186;27;19925;-38
2022/11/08 16:50:16;;;;;;;;;;;14.60;99.90;;;;;;12549002;28;20060;-39
2022/11/08 16:56:18;;;;;;;;;;;14.60;99.90;;;;;;12551292;28;19929;-38
2022/11/08 17:02:32;;;;;;;;;;;14.60;99.90;;;;;;12545319;28;19932;-38
2022/11/08 17:08:34;;;;;;;;;;;14.50;99.90;;;;;;12553221;28;19932;-38
2022/11/08 17:14:36;;;;;;;;;;;14.40;99.90;;;;;;12542084;28;19983;-38
2022/11/08 17:20:38;;;;;;;;;;;14.40;99.90;;;;;;12563475;28;19929;-38
2022/11/08 17:26:40;;;;;;;;;;;14.30;99.90;;;;;;12550639;28;20066;-38
2022/11/08 17:32:42;;;;;;;;;;;14.30;99.90;;;;;;12550461;28;19978;-38
2022/11/08 17:38:43;;;;;;;;;;;14.40;99.90;;;;;;12592221;28;19929;-39
2022/11/08 17:44:45;;;;;;;;;;;14.30;99.90;;;;;;12592521;28;19973;-38
2022/11/08 17:50:47;;;;;;;;;;;14.30;99.90;;;;;;12572670;28;20502;-38
2022/11/08 17:56:49;;;;;;;;;;;14.30;99.90;;;;;;12574047;28;19939;-39
2022/11/08 18:02:51;;;;;;;;;;;14.30;99.90;;;;;;12572844;28;19932;-38
2022/11/08 18:08:54;;;;;;;;;;;14.30;99.90;;;;;;12576056;28;19931;-38
2022/11/08 18:14:55;;;;;;;;;;;14.20;99.90;;;;;;12560983;28;19964;-38
2022/11/08 18:20:57;;;;;;;;;;;14.20;99.90;;;;;;12576546;28;19931;-38
2022/11/08 18:27:00;;;;;;;;;;;14.30;99.90;;;;;;12562422;28;19950;-38
2022/11/08 18:33:02;;;;;;;;;;;14.30;99.90;;;;;;12566224;28;19939;-38
2022/11/08 18:39:04;;;;;;;;;;;14.30;99.90;;;;;;12563273;28;19932;-38
2022/11/08 18:45:06;;;;;;;;;;;14.20;99.90;;;;;;12558001;28;19924;-38
2022/11/08 18:51:09;;;;;;;;;;;14.20;99.90;;;;;;12567569;28;20302;-38
2022/11/08 18:57:11;;;;;;;;;;;14.20;99.90;;;;;;12563259;28;19928;-38
2022/11/08 19:03:13;;;;;;;;;;;14.30;99.90;;;;;;12566723;28;19928;-38
2022/11/08 19:09:16;;;;;;;;;;;14.20;99.90;;;;;;12566330;28;19931;-38
2022/11/08 19:15:19;;;;;;;;;;;14.30;99.90;;;;;;12567610;28;19971;-38
2022/11/08 19:21:22;;;;;;;;;;;14.30;99.90;;;;;;12568314;28;19933;-38
2022/11/08 19:27:24;;;;;;;;;;;14.30;99.90;;;;;;12570648;28;19947;-39
2022/11/08 19:33:27;;;;;;;;;;;14.30;99.90;;;;;;12553504;28;19929;-38
2022/11/08 19:39:29;;;;;;;;;;;14.30;99.90;;;;;;12555256;28;19950;-38
2022/11/08 19:45:31;;;;;;;;;;;14.30;99.90;;;;;;12565266;28;19933;-38
2022/11/08 19:51:33;;;;;;;;;;;14.30;99.90;;;;;;12562848;28;19932;-38
2022/11/08 19:57:35;;;;;;;;;;;14.30;99.90;;;;;;12560626;28;19928;-38
2022/11/08 20:03:36;;;;;;;;;;;14.40;99.90;;;;;;12558207;28;19931;-38
2022/11/08 20:09:38;;;;;;;;;;;14.40;99.90;;;;;;12561023;28;20023;-38
2022/11/08 20:15:40;;;;;;;;;;;14.40;99.90;;;;;;12557174;28;19936;-38
2022/11/08 20:21:44;;;;;;;;;;;14.50;99.90;;;;;;12560971;28;19924;-39
2022/11/08 20:27:46;;;;;;;;;;;14.50;99.90;;;;;;12563075;28;19932;-38
2022/11/08 20:33:49;;;;;;;;;;;14.50;99.90;;;;;;12552111;28;19936;-39
2022/11/08 20:39:51;;;;;;;;;;;14.50;99.90;;;;;;12565843;28;20046;-38
2022/11/08 20:45:52;;;;;;;;;;;14.50;99.90;;;;;;12556489;28;20364;-38
2022/11/08 20:51:54;;;;;;;;;;;14.50;99.90;;;;;;12571662;28;20296;-39
2022/11/08 20:57:56;;;;;;;;;;;14.40;99.90;;;;;;12563729;28;19931;-38
2022/11/08 21:03:58;;;;;;;;;;;14.20;99.90;;;;;;12555409;28;19931;-38
2022/11/08 21:10:00;;;;;;;;;;;14.20;99.90;;;;;;12563469;28;19928;-38
2022/11/08 21:16:22;;;;;;;;;;;14.10;99.90;;;;;;12552747;28;19928;-39
2022/11/08 21:22:39;;;;;;;;;;;14.00;99.90;;;;;;12573632;28;20296;-38
2022/11/08 21:28:41;;;;;;;;;;;14.00;99.90;;;;;;12574232;28;20376;-38
2022/11/08 21:34:44;;;;;;;;;;;13.90;99.90;;;;;;12551356;28;19936;-38
2022/11/08 21:40:47;;;;;;;;;;;13.90;99.90;;;;;;12566726;28;20300;-38
2022/11/08 21:46:49;;;;;;;;;;;14.00;99.90;;;;;;12578769;28;19928;-38
2022/11/08 21:52:50;;;;;;;;;;;14.00;99.90;;;;;;12569031;28;19924;-38
2022/11/08 21:58:52;;;;;;;;;;;13.80;99.90;;;;;;12566347;28;20485;-38
2022/11/08 22:04:54;;;;;;;;;;;13.80;99.90;;;;;;12569114;28;19933;-38
2022/11/08 22:10:56;;;;;;;;;;;13.70;99.90;;;;;;12565126;28;19925;-38
2022/11/08 22:16:58;;;;;;;;;;;13.70;99.90;;;;;;12561926;28;19932;-38
2022/11/08 22:22:59;;;;;;;;;;;13.80;99.90;;;;;;12572292;28;19932;-38
2022/11/08 22:29:09;;;;;;;;;;;13.80;99.90;;;;;;12549723;28;19924;-38
2022/11/08 22:35:10;;;;;;;;;;;13.80;99.90;;;;;;12550883;28;19925;-38
2022/11/08 22:41:19;;;;;;;;;;;13.70;99.90;;;;;;12552534;28;19929;-38
2022/11/08 22:47:20;;;;;;;;;;;13.70;99.90;;;;;;12558144;28;19925;-38
2022/11/08 22:53:22;;;;;;;;;;;13.70;99.90;;;;;;12555235;28;20291;-38
2022/11/08 22:59:24;;;;;;;;;;;13.70;99.90;;;;;;12557969;28;20316;-38
2022/11/08 23:05:26;;;;;;;;;;;13.80;99.90;;;;;;12570459;28;19967;-38
2022/11/08 23:17:47;;;;;;;;;;;13.90;99.90;;;;;;12557164;28;20031;-39
2022/11/08 23:36:33;;;;;;;;;;;13.90;99.90;;;;;;12555219;28;19925;-38
2022/11/08 23:48:55;;;;;;;;;;;13.80;99.90;;;;;;12572650;28;19931;-38
2022/11/08 23:54:57;;;;;;;;;;;13.90;99.90;;;;;;12556115;28;19969;-38
